createdAt,value
2023-03-22T00:02:05.360Z,13.13
2023-03-22T00:04:32.630Z,13.93
2023-03-22T00:06:59.597Z,5.13
2023-03-22T00:09:26.103Z,17.98
2023-03-22T00:11:52.572Z,12.25
2023-03-22T00:14:19.214Z,8.80
2023-03-22T00:16:49.297Z,7.63
2023-03-22T00:19:17.426Z,13.82
2023-03-22T00:21:44.702Z,4.50
2023-03-22T00:24:11.264Z,11.40
2023-03-22T00:26:37.864Z,12.63
2023-03-22T00:29:04.490Z,13.88
2023-03-22T00:31:31.200Z,7.80
2023-03-22T00:33:57.687Z,19.48
2023-03-22T00:36:24.158Z,15.60
2023-03-22T00:38:51.762Z,15.27
2023-03-22T00:41:21.271Z,12.52
2023-03-22T00:43:48.953Z,12.80
2023-03-22T00:46:17.073Z,9.88
2023-03-22T00:48:44.097Z,14.52
2023-03-22T00:51:11.265Z,6.63
2023-03-22T00:53:39.849Z,10.63
2023-03-22T00:56:08.463Z,9.07
2023-03-22T00:58:35.750Z,16.70
2023-03-22T01:01:02.306Z,22.00
2023-03-22T01:03:28.956Z,18.55
2023-03-22T01:05:55.573Z,17.90
2023-03-22T01:08:23.501Z,16.08
2023-03-22T01:10:50.737Z,14.82
2023-03-22T01:13:18.137Z,14.75
2023-03-22T01:15:45.137Z,17.58
2023-03-22T01:18:11.688Z,17.63
2023-03-22T01:20:38.612Z,9.55
2023-03-22T01:23:05.388Z,19.88
2023-03-22T01:25:31.961Z,19.10
2023-03-22T01:27:58.941Z,15.50
2023-03-22T01:30:25.973Z,7.00
2023-03-22T01:32:52.564Z,3.60
2023-03-22T01:35:19.207Z,16.42
2023-03-22T01:37:45.836Z,12.35
2023-03-22T01:40:14.787Z,10.65
2023-03-22T01:42:41.639Z,15.20
2023-03-22T01:45:14.367Z,16.30
2023-03-22T01:47:52.184Z,18.02
2023-03-22T01:50:19.935Z,7.22
2023-03-22T01:52:47.464Z,17.55
2023-03-22T01:55:14.150Z,19.98
2023-03-22T01:57:42.203Z,16.67
2023-03-22T02:00:15.942Z,18.65
2023-03-22T02:02:44.061Z,19.10
2023-03-22T02:05:12.254Z,19.20
2023-03-22T02:07:41.097Z,14.93
2023-03-22T02:10:16.856Z,20.33
2023-03-22T02:12:50.764Z,15.13
2023-03-22T02:15:20.580Z,17.27
2023-03-22T02:18:16.640Z,16.55
2023-03-22T02:20:47.082Z,11.23
2023-03-22T02:23:30.319Z,18.48
2023-03-22T02:26:41.611Z,18.38
2023-03-22T02:29:31.464Z,10.93
2023-03-22T02:32:23.134Z,7.10
2023-03-22T02:35:07.918Z,18.23
2023-03-22T02:38:04.903Z,18.27
2023-03-22T02:40:50.553Z,20.58
2023-03-22T02:43:23.580Z,20.40
2023-03-22T02:46:14.401Z,10.70
2023-03-22T02:49:10.663Z,17.55
2023-03-22T02:51:42.575Z,17.20
2023-03-22T02:54:20.707Z,19.35
2023-03-22T02:56:54.326Z,18.60
2023-03-22T02:59:23.622Z,19.67
2023-03-22T03:01:57.337Z,12.88
2023-03-22T03:04:29.164Z,18.90
2023-03-22T03:07:00.678Z,20.35
2023-03-22T03:09:28.021Z,21.98
2023-03-22T03:11:54.816Z,19.77
2023-03-22T03:14:32.115Z,18.30
2023-03-22T03:17:08.445Z,20.52
2023-03-22T03:19:49.800Z,13.85
2023-03-22T03:22:51.323Z,21.98
2023-03-22T03:25:46.365Z,20.45
2023-03-22T03:28:30.264Z,11.65
2023-03-22T03:31:06.459Z,18.98
2023-03-22T03:33:35.903Z,20.98
2023-03-22T03:36:06.449Z,11.48
2023-03-22T03:38:36.752Z,18.23
2023-03-22T03:41:08.374Z,21.35
2023-03-22T03:43:35.854Z,20.58
2023-03-22T03:46:03.106Z,21.00
2023-03-22T03:48:33.248Z,21.23
2023-03-22T03:51:01.919Z,21.38
2023-03-22T03:53:29.750Z,22.27
2023-03-22T03:55:56.305Z,10.65
2023-03-22T03:58:23.094Z,15.65
2023-03-22T04:00:50.273Z,19.05
2023-03-22T04:03:17.223Z,19.83
2023-03-22T04:05:44.176Z,20.75
2023-03-22T04:08:10.630Z,12.18
2023-03-22T04:10:37.278Z,17.08
2023-03-22T04:13:03.968Z,19.60
2023-03-22T04:15:30.534Z,22.20
2023-03-22T04:17:57.320Z,20.52
2023-03-22T04:20:26.126Z,27.02
2023-03-22T04:22:52.741Z,21.23
2023-03-22T04:25:19.236Z,19.77
2023-03-22T04:27:50.958Z,21.33
2023-03-22T04:30:21.971Z,18.88
2023-03-22T04:32:49.629Z,6.90
2023-03-22T04:35:16.569Z,18.15
2023-03-22T04:37:43.140Z,21.15
2023-03-22T04:40:17.366Z,8.90
2023-03-22T04:42:44.807Z,17.33
2023-03-22T04:45:12.512Z,21.90
2023-03-22T04:47:39.254Z,14.40
2023-03-22T04:50:08.033Z,16.00
2023-03-22T04:52:34.694Z,16.45
2023-03-22T04:55:01.322Z,17.42
2023-03-22T04:57:27.887Z,17.08
2023-03-22T04:59:54.461Z,5.90
2023-03-22T05:02:21.163Z,5.18
2023-03-22T05:04:47.737Z,17.90
2023-03-22T05:07:14.299Z,6.25
2023-03-22T05:09:40.998Z,12.63
2023-03-22T05:12:07.570Z,11.95
2023-03-22T05:14:34.091Z,20.02
2023-03-22T05:17:00.614Z,9.23
2023-03-22T05:19:27.565Z,17.60
2023-03-22T05:21:58.306Z,2.28
2023-03-22T05:24:25.210Z,9.70
2023-03-22T05:26:53.862Z,11.75
2023-03-22T05:29:21.449Z,6.95
2023-03-22T05:31:48.430Z,16.35
2023-03-22T05:34:15.069Z,11.95
2023-03-22T05:36:41.623Z,18.85
2023-03-22T05:39:08.133Z,8.70
2023-03-22T05:41:36.498Z,17.75
2023-03-22T05:44:04.081Z,9.77
2023-03-22T05:46:30.921Z,7.97
2023-03-22T05:48:57.634Z,14.15
2023-03-22T05:51:25.757Z,6.55
2023-03-22T05:53:53.542Z,10.02
2023-03-22T05:56:25.760Z,16.38
2023-03-22T05:58:52.334Z,6.13
2023-03-22T06:01:21.484Z,9.63
2023-03-22T06:03:48.888Z,8.65
2023-03-22T06:06:15.827Z,7.10
2023-03-22T06:08:42.926Z,10.43
2023-03-22T06:11:09.742Z,5.90
2023-03-22T06:13:37.431Z,3.67
2023-03-22T06:16:05.577Z,11.63
2023-03-22T06:18:32.924Z,11.93
2023-03-22T06:20:59.516Z,5.55
2023-03-22T06:23:26.052Z,7.43
2023-03-22T06:25:52.529Z,6.70
2023-03-22T06:28:19.047Z,12.90
2023-03-22T06:30:45.760Z,8.70
2023-03-22T06:33:12.351Z,10.50
2023-03-22T06:35:38.943Z,9.10
2023-03-22T06:38:05.830Z,9.68
2023-03-22T06:40:32.328Z,9.90
2023-03-22T06:43:01.675Z,9.38
2023-03-22T06:45:33.380Z,14.80
2023-03-22T06:48:00.982Z,10.98
2023-03-22T06:50:28.985Z,5.68
2023-03-22T06:52:55.714Z,7.13
2023-03-22T06:55:22.375Z,7.03
2023-03-22T06:57:48.891Z,7.25
2023-03-22T07:00:16.028Z,11.68
2023-03-22T07:02:42.503Z,7.85
2023-03-22T07:05:09.343Z,12.05
2023-03-22T07:07:35.838Z,8.93
2023-03-22T07:10:02.406Z,10.20
2023-03-22T07:12:28.887Z,6.22
2023-03-22T07:14:55.599Z,5.55
2023-03-22T07:17:22.060Z,2.08
2023-03-22T07:19:48.922Z,9.10
2023-03-22T07:22:15.532Z,6.43
2023-03-22T07:24:53.865Z,8.38
2023-03-22T07:27:23.033Z,9.23
2023-03-22T07:29:49.533Z,14.00
2023-03-22T07:32:16.339Z,11.20
2023-03-22T07:34:43.016Z,8.68
2023-03-22T07:37:09.573Z,4.13
2023-03-22T07:39:36.256Z,8.57
2023-03-22T07:42:03.196Z,10.77
2023-03-22T07:44:29.711Z,10.55
2023-03-22T07:46:56.325Z,11.05
2023-03-22T07:49:22.948Z,4.80
2023-03-22T07:51:49.415Z,10.35
2023-03-22T07:54:32.194Z,10.07
2023-03-22T07:57:02.730Z,10.90
2023-03-22T07:59:29.241Z,8.20
2023-03-22T08:01:55.784Z,4.82
2023-03-22T08:04:22.740Z,9.93
2023-03-22T08:06:49.866Z,6.82
2023-03-22T08:09:16.586Z,4.45
2023-03-22T08:11:43.140Z,9.27
2023-03-22T08:14:09.998Z,6.82
2023-03-22T08:16:36.582Z,8.45
2023-03-22T08:19:03.187Z,7.78
2023-03-22T08:21:32.358Z,10.98
2023-03-22T08:23:58.813Z,10.32
2023-03-22T08:26:26.151Z,13.05
2023-03-22T08:28:53.219Z,6.72
2023-03-22T08:31:20.165Z,5.88
2023-03-22T08:33:51.125Z,6.95
2023-03-22T08:36:22.730Z,6.80
2023-03-22T08:38:49.550Z,5.15
2023-03-22T08:41:16.535Z,1.15
2023-03-22T08:43:43.275Z,5.93
2023-03-22T08:46:10.170Z,9.93
2023-03-22T08:48:37.948Z,3.58
2023-03-22T08:51:06.417Z,5.57
2023-03-22T08:53:32.996Z,8.77
2023-03-22T08:56:01.761Z,8.60
2023-03-22T08:58:28.495Z,2.03
2023-03-22T09:00:55.287Z,3.92
2023-03-22T09:03:23.942Z,5.43
2023-03-22T09:05:51.106Z,7.15
2023-03-22T09:08:19.501Z,5.22
2023-03-22T09:10:51.959Z,7.55
2023-03-22T09:13:19.628Z,5.90
2023-03-22T09:15:46.293Z,10.50
2023-03-22T09:18:13.364Z,3.22
2023-03-22T09:20:40.414Z,6.25
2023-03-22T09:23:07.114Z,1.92
2023-03-22T09:25:33.656Z,6.32
2023-03-22T09:28:00.157Z,4.43
2023-03-22T09:30:27.224Z,3.10
2023-03-22T09:32:53.817Z,7.93
2023-03-22T09:35:20.416Z,4.88
2023-03-22T09:37:47.457Z,9.25
2023-03-22T09:40:14.055Z,9.38
2023-03-22T09:42:51.253Z,10.25
2023-03-22T09:45:30.005Z,12.02
2023-03-22T09:47:58.949Z,8.27
2023-03-22T09:50:29.930Z,9.05
2023-03-22T09:52:56.414Z,4.28
2023-03-22T09:55:39.617Z,1.67
2023-03-22T09:58:36.017Z,9.05
2023-03-22T10:01:05.230Z,12.38
2023-03-22T10:03:40.728Z,8.25
2023-03-22T10:09:04.619Z,5.95
2023-03-22T10:11:51.853Z,12.63
2023-03-22T10:14:34.222Z,2.63
2023-03-22T10:17:06.796Z,7.72
2023-03-22T10:19:46.553Z,3.17
2023-03-22T10:22:16.398Z,4.05
2023-03-22T10:24:46.344Z,3.33
2023-03-22T10:27:17.175Z,8.27
2023-03-22T10:29:48.435Z,8.93
2023-03-22T10:32:18.086Z,6.47
2023-03-22T10:34:45.485Z,10.35
2023-03-22T10:37:20.498Z,3.50
2023-03-22T10:39:50.870Z,2.33
2023-03-22T10:42:22.123Z,5.38
2023-03-22T10:44:53.633Z,7.05
2023-03-22T10:47:31.180Z,4.03
2023-03-22T10:50:03.502Z,11.43
2023-03-22T10:52:49.804Z,7.72
2023-03-22T10:55:17.329Z,7.85
2023-03-22T10:58:26.132Z,6.43
2023-03-22T11:00:56.864Z,1.33
2023-03-22T11:03:35.306Z,1.80
2023-03-22T11:06:17.418Z,8.85
2023-03-22T11:08:52.714Z,7.45
2023-03-22T11:13:58.945Z,2.53
2023-03-22T11:16:25.857Z,4.72
2023-03-22T11:18:52.625Z,8.48
2023-03-22T11:21:33.116Z,5.32
2023-03-22T11:24:13.095Z,6.38
2023-03-22T11:26:41.636Z,4.25
2023-03-22T11:29:14.404Z,8.93
2023-03-22T11:31:56.099Z,5.07
2023-03-22T11:34:26.335Z,6.03
2023-03-22T11:36:56.829Z,5.97
2023-03-22T11:39:28.107Z,2.45
2023-03-22T11:42:01.827Z,9.60
2023-03-22T11:44:34.042Z,9.85
2023-03-22T11:47:02.616Z,9.82
2023-03-22T11:49:50.276Z,7.13
2023-03-22T11:52:21.772Z,4.75
2023-03-22T11:54:49.042Z,8.98
2023-03-22T11:57:20.396Z,16.80
2023-03-22T11:59:48.748Z,6.93
2023-03-22T12:02:32.510Z,8.05
2023-03-22T12:05:14.074Z,5.75
2023-03-22T12:07:41.387Z,0.30
2023-03-22T12:10:21.446Z,4.50
2023-03-22T12:12:57.274Z,4.47
2023-03-22T12:15:31.660Z,8.25
2023-03-22T12:18:10.924Z,1.70
2023-03-22T12:20:47.574Z,5.85
2023-03-22T12:23:17.871Z,6.75
2023-03-22T12:25:50.604Z,8.23
2023-03-22T12:28:26.124Z,12.93
2023-03-22T12:30:56.097Z,4.00
2023-03-22T12:33:38.935Z,7.35
2023-03-22T12:36:07.097Z,13.10
2023-03-22T12:38:41.122Z,6.65
2023-03-22T12:41:12.558Z,6.00
2023-03-22T12:43:41.780Z,5.50
2023-03-22T12:46:16.769Z,5.07
2023-03-22T12:48:48.512Z,2.45
2023-03-22T12:51:15.311Z,2.78
2023-03-22T12:53:48.897Z,3.95
2023-03-22T12:56:35.841Z,13.35
2023-03-22T12:59:05.835Z,4.22
2023-03-22T13:01:58.338Z,2.58
2023-03-22T13:04:31.721Z,2.80
2023-03-22T13:07:15.457Z,2.50
2023-03-22T13:09:49.984Z,9.25
2023-03-22T13:12:16.536Z,1.60
2023-03-22T13:14:51.881Z,5.47
2023-03-22T13:17:24.931Z,6.25
2023-03-22T13:19:58.701Z,6.22
2023-03-22T13:22:38.863Z,4.55
2023-03-22T13:25:16.670Z,2.05
2023-03-22T13:28:03.292Z,4.55
2023-03-22T13:30:35.593Z,1.27
2023-03-22T13:33:08.654Z,3.90
2023-03-22T13:35:38.602Z,5.25
2023-03-22T13:38:10.534Z,7.03
2023-03-22T13:41:08.400Z,3.28
2023-03-22T13:43:50.045Z,4.63
2023-03-22T13:46:16.618Z,2.10
2023-03-22T13:49:01.725Z,8.70
2023-03-22T13:51:31.790Z,4.60
2023-03-22T13:54:16.489Z,2.53
2023-03-22T13:56:58.362Z,5.22
2023-03-22T13:59:28.002Z,7.10
2023-03-22T14:01:59.528Z,4.07
2023-03-22T14:04:34.956Z,4.55
2023-03-22T14:07:21.669Z,5.70
2023-03-22T14:09:56.988Z,6.43
2023-03-22T14:15:19.113Z,10.02
2023-03-22T14:17:56.720Z,7.63
2023-03-22T14:20:30.281Z,1.52
